Time;durP1;ratioP1;P1;durP2;ratioP2;P2;SDS_P1;SDS_P2;PMS_P1;PMS_P2;Temp;Humidity;BMP_temperature;BMP_pressure;BME280_temperature;BME280_humidity;BME280_pressure;Samples;Min_cycle;Max_cycle;Signal;HPM_P1;HPM_P2
2021/12/12 00:01:22;;;;;;;11.23;5.95;;;;;;;2.74;92.72;101242.06;5073068;28;20040;-52
2021/12/12 00:04:09;;;;;;;16.45;6.22;;;;;;;2.83;92.85;101240.31;5067724;28;20498;-55
2021/12/12 00:06:38;;;;;;;12.80;6.00;;;;;;;2.81;92.23;101249.03;5068246;28;20048;-53
2021/12/12 00:09:34;;;;;;;14.60;5.72;;;;;;;2.78;92.36;101256.88;5072006;28;20132;-53
2021/12/12 00:12:12;;;;;;;13.48;5.10;;;;;;;2.76;92.30;101262.97;5069616;28;20064;-54
2021/12/12 00:14:39;;;;;;;12.90;5.10;;;;;;;2.73;91.64;101265.59;5070971;28;20481;-53
2021/12/12 00:17:08;;;;;;;12.95;5.07;;;;;;;2.73;91.13;101269.09;5069998;28;20422;-54
2021/12/12 00:19:39;;;;;;;16.90;5.38;;;;;;;2.62;91.14;101256.91;5072051;28;20059;-54
2021/12/12 00:22:15;;;;;;;9.93;5.20;;;;;;;2.62;92.21;101257.78;5070741;28;20055;-52
2021/12/12 00:24:53;;;;;;;11.13;5.20;;;;;;;2.64;91.09;101269.09;5073205;28;20049;-53
2021/12/12 00:27:21;;;;;;;12.05;5.00;;;;;;;2.60;91.69;101263.88;5070291;28;20058;-53
2021/12/12 00:30:29;;;;;;;10.35;5.05;;;;;;;2.57;91.44;101279.56;5071153;28;20566;-53
2021/12/12 00:32:57;;;;;;;10.23;4.70;;;;;;;2.50;91.83;101278.69;5070311;28;20059;-53
2021/12/12 00:35:29;;;;;;;14.35;4.90;;;;;;;2.44;92.21;101274.34;5071063;28;21104;-53
2021/12/12 00:38:03;;;;;;;11.18;5.25;;;;;;;2.46;91.92;101272.59;5070583;28;20736;-52
2021/12/12 00:40:43;;;;;;;11.13;5.10;;;;;;;2.47;91.94;101270.84;5069159;28;20059;-52
2021/12/12 00:43:23;;;;;;;11.25;4.75;;;;;;;2.45;91.49;101273.47;5069076;28;20063;-53
2021/12/12 00:45:57;;;;;;;12.32;4.88;;;;;;;2.32;91.62;101257.78;5070674;28;20048;-54
2021/12/12 00:48:50;;;;;;;13.60;5.25;;;;;;;2.39;92.08;101275.19;5071026;28;20416;-52
2021/12/12 00:51:28;;;;;;;12.32;5.32;;;;;;;2.51;91.20;101280.44;5074842;28;20742;-52
2021/12/12 00:54:03;;;;;;;8.13;4.72;;;;;;;2.45;91.01;101281.31;5069657;28;20219;-55
2021/12/12 00:56:30;;;;;;;12.27;5.03;;;;;;;2.40;90.96;101287.38;5072649;28;20074;-52
2021/12/12 00:58:58;;;;;;;9.25;4.80;;;;;;;2.37;91.09;101283.03;5071814;28;20049;-56
2021/12/12 01:01:35;;;;;;;8.27;4.45;;;;;;;2.38;91.67;101291.75;5072671;28;20421;-53
2021/12/12 01:04:24;;;;;;;16.27;5.15;;;;;;;2.34;91.34;101290.88;5058861;28;20052;-54
2021/12/12 01:07:03;;;;;;;12.25;5.15;;;;;;;2.30;91.82;101296.97;5068634;28;20036;-53
2021/12/12 01:09:52;;;;;;;12.80;5.38;;;;;;;2.27;92.54;101296.09;5068708;28;20105;-53
2021/12/12 01:12:40;;;;;;;10.52;5.03;;;;;;;2.31;91.80;101303.94;5074357;28;20542;-55
2021/12/12 01:15:48;;;;;;;13.20;5.55;;;;;;;2.32;91.60;101310.91;5075003;28;20076;-53
2021/12/12 01:18:24;;;;;;;9.63;5.28;;;;;;;2.22;91.83;101292.59;5033939;28;20195;-52
2021/12/12 01:21:02;;;;;;;14.27;5.00;;;;;;;2.29;92.00;101316.13;5034262;28;20155;-53
2021/12/12 01:23:38;;;;;;;15.88;5.53;;;;;;;2.27;92.65;101309.16;5017306;28;20498;-52
2021/12/12 01:26:10;;;;;;;15.30;5.25;;;;;;;2.22;92.84;101309.16;5034530;28;21006;-54
2021/12/12 01:29:03;;;;;;;12.57;5.63;;;;;;;2.20;92.49;101308.31;5072010;28;20147;-52
2021/12/12 01:31:48;;;;;;;12.02;5.40;;;;;;;2.18;92.37;101317.88;5074183;28;20044;-53
2021/12/12 01:34:22;;;;;;;10.75;5.00;;;;;;;2.15;93.09;101324.81;5069319;28;20527;-53
2021/12/12 01:37:33;;;;;;;9.82;5.72;;;;;;;2.11;93.16;101313.50;5070673;28;20036;-54
2021/12/12 01:40:23;;;;;;;10.57;5.70;;;;;;;2.06;93.75;101308.25;5073276;28;20050;-53
2021/12/12 01:42:55;;;;;;;11.23;5.72;;;;;;;2.05;93.41;101300.41;5070006;28;20040;-54
2021/12/12 01:45:27;;;;;;;12.63;5.20;;;;;;;1.98;94.08;101296.91;5075089;28;20045;-52
2021/12/12 01:48:04;;;;;;;14.68;6.07;;;;;;;1.95;94.25;101298.66;5071898;28;20056;-53
2021/12/12 01:50:37;;;;;;;9.73;5.10;;;;;;;1.89;94.27;101290.81;5074367;28;20639;-54
2021/12/12 01:53:11;;;;;;;11.23;5.43;;;;;;;1.88;94.50;101282.09;5070789;28;20050;-51
2021/12/12 01:55:49;;;;;;;11.20;5.25;;;;;;;1.89;94.73;101288.19;5071045;28;20072;-52
2021/12/12 01:58:19;;;;;;;13.02;5.57;;;;;;;1.77;94.79;101279.44;5073571;28;20524;-53
2021/12/12 02:01:30;;;;;;;10.70;5.22;;;;;;;1.88;94.90;101307.34;5072478;28;20131;-53
2021/12/12 02:04:23;;;;;;;12.52;5.50;;;;;;;1.84;94.90;101302.97;5070057;28;20197;-52
2021/12/12 02:06:54;;;;;;;16.58;6.53;;;;;;;1.87;95.19;101305.59;5071507;28;20499;-54
2021/12/12 02:09:27;;;;;;;13.80;5.88;;;;;;;1.86;95.42;101303.84;5073316;28;20060;-53
2021/12/12 02:12:06;;;;;;;12.30;6.28;;;;;;;1.82;94.90;101299.47;5071397;28;20087;-54
2021/12/12 02:14:53;;;;;;;9.90;5.78;;;;;;;1.83;94.86;101306.44;5072652;28;20552;-54
2021/12/12 02:17:41;;;;;;;15.15;6.55;;;;;;;1.81;94.60;101316.88;5074561;28;20052;-54
2021/12/12 02:20:47;;;;;;;13.77;6.05;;;;;;;1.77;94.73;101315.13;5075279;28;20170;-53
2021/12/12 02:23:34;;;;;;;15.15;6.78;;;;;;;1.65;95.23;101300.28;5078646;28;20053;-53
2021/12/12 02:35:13;;;;;;;16.45;7.13;;;;;;;1.76;95.46;101322.09;5074261;28;20040;-52
2021/12/12 02:37:44;;;;;;;10.95;6.85;;;;;;;1.73;95.13;101316.00;5076451;28;20063;-54
2021/12/12 02:40:53;;;;;;;16.15;7.97;;;;;;;1.74;95.18;101315.97;5076772;28;20056;-52
2021/12/12 02:43:38;;;;;;;15.90;7.60;;;;;;;1.76;95.54;101309.03;5074549;28;20047;-52
2021/12/12 02:46:11;;;;;;;16.50;8.27;;;;;;;1.80;95.13;101309.06;5077700;28;20097;-51
2021/12/12 02:48:51;;;;;;;15.13;7.85;;;;;;;1.78;94.84;101311.66;5074986;28;20468;-52
2021/12/12 02:51:26;;;;;;;17.38;9.20;;;;;;;1.80;95.80;101303.81;5076991;28;20051;-53
2021/12/12 02:53:59;;;;;;;13.75;8.40;;;;;;;1.81;95.49;101302.97;5072086;28;20478;-51
2021/12/12 02:56:47;;;;;;;18.05;8.93;;;;;;;1.91;95.24;101300.38;5076199;28;20067;-52
2021/12/12 02:59:20;;;;;;;20.45;9.05;;;;;;;1.94;94.85;101299.50;5077528;28;20865;-54
2021/12/12 03:01:58;;;;;;;23.33;9.32;;;;;;;1.91;95.59;101296.88;5076163;28;20432;-53
2021/12/12 03:04:29;;;;;;;21.80;9.10;;;;;;;1.93;95.47;101305.59;5073825;28;20053;-53
2021/12/12 03:07:07;;;;;;;17.98;8.65;;;;;;;1.87;94.96;101310.81;5071876;28;20044;-54
2021/12/12 03:09:39;;;;;;;16.98;8.63;;;;;;;1.85;95.89;101309.94;5074920;28;20060;-52
2021/12/12 03:12:37;;;;;;;16.90;9.23;;;;;;;1.83;95.44;101309.06;5074077;28;20052;-53
2021/12/12 03:15:41;;;;;;;17.63;8.75;;;;;;;1.77;96.14;101308.16;5073664;28;20044;-52
2021/12/12 03:18:25;;;;;;;17.00;8.30;;;;;;;1.74;95.66;101310.75;5071988;28;20044;-53
2021/12/12 03:20:58;;;;;;;18.90;9.02;;;;;;;1.74;96.42;101304.66;5071580;28;20048;-54
2021/12/12 03:23:48;;;;;;;17.98;9.32;;;;;;;1.73;96.37;101302.94;5070769;28;20448;-53
2021/12/12 03:26:23;;;;;;;16.63;8.95;;;;;;;1.71;96.73;101296.84;5076156;28;20040;-53
2021/12/12 03:28:59;;;;;;;22.65;9.60;;;;;;;1.76;96.97;101308.16;5071667;28;20070;-53
2021/12/12 03:31:34;;;;;;;24.27;9.18;;;;;;;1.82;96.29;101307.31;5073967;28;20834;-53
2021/12/12 03:34:34;;;;;;;18.90;8.95;;;;;;;1.85;96.20;101320.41;5074456;28;20486;-52
2021/12/12 03:37:08;;;;;;;23.08;9.48;;;;;;;1.91;96.42;101313.44;5076630;28;20108;-53
2021/12/12 03:39:56;;;;;;;15.98;8.68;;;;;;;1.97;95.22;101313.47;5074336;28;20172;-52
2021/12/12 03:42:31;;;;;;;21.50;8.93;;;;;;;2.04;94.84;101317.84;5070817;28;20560;-52
2021/12/12 03:45:07;;;;;;;16.48;9.23;;;;;;;2.05;94.41;101313.47;5074541;28;20175;-52
2021/12/12 03:47:41;;;;;;;13.75;8.70;;;;;;;2.05;95.00;101309.09;5076682;28;20450;-57
2021/12/12 03:50:16;;;;;;;15.65;9.20;;;;;;;2.07;95.39;101309.13;5073723;28;20048;-54
2021/12/12 03:52:46;;;;;;;16.67;8.90;;;;;;;2.09;94.76;101315.22;5073426;28;20420;-54
2021/12/12 03:55:14;;;;;;;18.48;8.77;;;;;;;2.00;94.69;101302.16;5069399;28;20048;-52
2021/12/12 03:57:50;;;;;;;17.02;9.00;;;;;;;2.11;95.08;101313.50;5075181;28;20089;-54
2021/12/12 04:00:32;;;;;;;17.63;8.55;;;;;;;2.02;94.89;101313.47;5075773;28;20047;-51
2021/12/12 04:03:00;;;;;;;18.77;8.77;;;;;;;2.14;94.63;101331.78;5072219;28;20040;-57
2021/12/12 04:05:33;;;;;;;16.23;8.57;;;;;;;2.15;94.21;101323.09;5073957;28;20060;-51
2021/12/12 04:08:05;;;;;;;19.40;8.60;;;;;;;2.17;94.59;101330.94;5073855;28;20082;-53
2021/12/12 04:10:34;;;;;;;21.45;8.55;;;;;;;2.21;94.26;101330.91;5072819;28;20040;-54
2021/12/12 04:13:13;;;;;;;18.85;8.35;;;;;;;2.23;93.72;101337.03;5074095;28;20052;-52
2021/12/12 04:15:40;;;;;;;18.92;8.40;;;;;;;2.15;93.88;101309.16;5073842;28;20609;-51
2021/12/12 04:18:09;;;;;;;15.43;8.63;;;;;;;2.24;93.23;101330.06;5075126;28;20060;-52
2021/12/12 04:20:40;;;;;;;15.73;8.10;;;;;;;2.17;93.75;101321.34;5074253;28;20335;-53
2021/12/12 04:23:29;;;;;;;19.20;8.75;;;;;;;2.10;93.84;101319.59;5073201;28;20487;-55
2021/12/12 04:26:31;;;;;;;14.98;7.90;;;;;;;2.22;93.62;101339.63;5072422;28;20048;-53
2021/12/12 04:29:25;;;;;;;15.70;8.15;;;;;;;2.25;93.66;101337.91;5073014;28;20060;-52
2021/12/12 04:31:58;;;;;;;14.93;7.28;;;;;;;2.25;93.49;101343.13;5068667;28;20114;-53
2021/12/12 04:34:31;;;;;;;16.55;7.95;;;;;;;2.30;93.46;101337.91;5074165;28;20429;-52
2021/12/12 04:37:05;;;;;;;16.80;7.93;;;;;;;2.29;93.92;101342.28;5073540;28;20135;-52
2021/12/12 04:39:47;;;;;;;17.60;7.68;;;;;;;2.29;93.29;101350.13;5071861;28;20048;-52
2021/12/12 04:42:23;;;;;;;20.38;7.85;;;;;;;2.29;93.40;101346.63;5073962;28;20084;-53
2021/12/12 04:45:19;;;;;;;14.45;7.47;;;;;;;2.35;93.21;101344.03;5073236;28;20052;-51
2021/12/12 04:51:32;;;;;;;16.40;7.45;;;;;;;2.32;93.31;101352.75;5070140;28;20048;-54
2021/12/12 04:54:09;;;;;;;13.52;7.32;;;;;;;2.35;93.07;101349.25;5073180;28;20044;-53
2021/12/12 04:56:45;;;;;;;12.50;7.35;;;;;;;2.35;93.00;101352.75;5073404;28;20051;-52
2021/12/12 04:59:35;;;;;;;21.48;7.38;;;;;;;2.30;92.95;101357.09;5072552;28;20059;-54
2021/12/12 05:02:31;;;;;;;15.07;7.35;;;;;;;2.26;93.43;101355.31;5072511;28;20048;-53
2021/12/12 05:05:12;;;;;;;15.25;6.90;;;;;;;2.33;93.96;101353.63;5073125;28;20102;-52
2021/12/12 05:07:51;;;;;;;12.60;7.22;;;;;;;2.35;93.40;101346.66;5070700;28;20040;-54
2021/12/12 05:10:39;;;;;;;15.10;6.75;;;;;;;2.34;93.21;101351.00;5066361;28;20040;-53
2021/12/12 05:13:13;;;;;;;15.43;6.97;;;;;;;2.29;93.95;101344.88;5074280;28;20086;-52
2021/12/12 05:16:02;;;;;;;15.18;7.45;;;;;;;2.36;94.17;101354.47;5069935;28;20056;-52
2021/12/12 05:18:51;;;;;;;19.35;6.72;;;;;;;2.39;93.88;101353.59;5073236;28;20044;-54
2021/12/12 05:21:27;;;;;;;13.30;6.43;;;;;;;2.46;92.49;101353.63;5073627;28;20066;-52
2021/12/12 05:24:07;;;;;;;15.32;6.97;;;;;;;2.40;92.92;101358.84;5068877;28;20132;-54
2021/12/12 05:26:49;;;;;;;15.77;6.93;;;;;;;2.44;93.36;101355.38;5073598;28;20036;-52
2021/12/12 05:29:40;;;;;;;13.32;6.05;;;;;;;2.53;92.84;101356.22;5070626;28;20090;-54
2021/12/12 05:32:11;;;;;;;16.25;5.88;;;;;;;2.50;92.66;101361.47;5073014;28;20055;-55
2021/12/12 05:34:41;;;;;;;12.32;5.55;;;;;;;2.51;92.50;101364.09;5067867;28;20053;-54
2021/12/12 05:37:12;;;;;;;12.73;5.87;;;;;;;2.49;92.48;101365.84;5073824;28;20036;-52
2021/12/12 05:39:55;;;;;;;12.32;5.55;;;;;;;2.34;92.48;101350.13;5070231;28;20059;-52
2021/12/12 05:42:39;;;;;;;9.75;5.38;;;;;;;2.49;92.33;101365.84;5072555;28;20502;-54
2021/12/12 05:45:28;;;;;;;13.93;5.32;;;;;;;2.50;92.10;101370.19;5072659;28;20057;-54
2021/12/12 05:48:28;;;;;;;16.50;5.93;;;;;;;2.49;91.74;101371.06;5070638;28;20052;-51
2021/12/12 05:51:01;;;;;;;9.60;5.68;;;;;;;2.50;92.28;101371.94;5070769;28;20779;-54
2021/12/12 05:53:28;;;;;;;10.27;5.45;;;;;;;2.49;91.87;101357.13;5072851;28;20063;-53
2021/12/12 05:55:55;;;;;;;12.98;5.28;;;;;;;2.59;91.44;101371.94;5075886;28;20059;-53
2021/12/12 05:58:25;;;;;;;16.80;6.10;;;;;;;2.55;91.94;101375.41;5077872;28;20052;-51
2021/12/12 06:00:56;;;;;;;9.90;4.82;;;;;;;2.54;91.29;101363.22;5073747;28;20070;-53
2021/12/12 06:03:29;;;;;;;10.90;4.90;;;;;;;2.57;91.37;101363.22;5077986;28;20044;-53
2021/12/12 06:05:57;;;;;;;13.98;5.75;;;;;;;2.57;91.48;101360.59;5073779;28;20044;-55
2021/12/12 06:08:36;;;;;;;13.25;5.18;;;;;;;2.55;91.33;101364.94;5076286;28;20420;-51
2021/12/12 06:11:10;;;;;;;13.75;5.50;;;;;;;2.55;91.33;101360.59;5076571;28;20076;-53
2021/12/12 06:13:44;;;;;;;11.23;5.05;;;;;;;2.52;91.30;101359.75;5088912;28;20048;-53
2021/12/12 06:16:30;;;;;;;10.57;5.50;;;;;;;2.50;91.17;101364.09;5070897;28;20056;-54
2021/12/12 06:19:05;;;;;;;13.30;5.10;;;;;;;2.56;90.73;101366.69;5077247;28;20056;-53
2021/12/12 06:22:06;;;;;;;13.95;5.55;;;;;;;2.55;90.85;101367.56;5076697;28;20052;-52
2021/12/12 06:24:33;;;;;;;12.68;5.80;;;;;;;2.51;91.05;101363.22;5022886;28;20057;-53
2021/12/12 06:27:22;;;;;;;16.35;6.47;;;;;;;2.52;90.61;101371.03;5073887;28;20058;-55
2021/12/12 06:29:52;;;;;;;14.10;5.75;;;;;;;2.46;90.70;101382.38;5080376;28;20056;-53
2021/12/12 06:32:20;;;;;;;10.30;6.05;;;;;;;2.40;91.40;101382.38;5082162;28;20048;-52
2021/12/12 06:34:49;;;;;;;19.45;5.88;;;;;;;2.47;90.77;101385.88;5075404;28;20046;-53
2021/12/12 06:37:19;;;;;;;12.45;5.70;;;;;;;2.50;90.92;101382.41;5075336;28;20045;-51
2021/12/12 06:39:46;;;;;;;9.70;3.95;;;;;;;2.55;90.84;101383.25;5084890;28;20044;-54
2021/12/12 06:42:16;;;;;;;11.48;5.00;;;;;;;2.55;91.07;101380.63;5087789;28;20556;-53
2021/12/12 06:44:46;;;;;;;14.52;5.80;;;;;;;2.52;91.39;101378.88;5089902;28;20148;-54
2021/12/12 06:47:16;;;;;;;9.32;5.45;;;;;;;2.51;91.72;101381.53;5087257;28;20298;-52
2021/12/12 06:49:49;;;;;;;14.02;5.47;;;;;;;2.53;91.57;101378.03;5083971;28;20048;-52
2021/12/12 06:52:20;;;;;;;11.80;5.72;;;;;;;2.56;90.53;101387.63;5091148;28;20048;-52
2021/12/12 06:55:06;;;;;;;9.65;5.53;;;;;;;2.55;90.94;101380.63;5089465;28;20087;-53
2021/12/12 06:57:33;;;;;;;18.58;6.18;;;;;;;2.58;90.85;101391.13;5093030;28;20056;-54
2021/12/12 07:00:00;;;;;;;12.40;5.75;;;;;;;2.41;90.79;101365.81;5091817;28;20146;-51
2021/12/12 07:02:31;;;;;;;12.70;6.22;;;;;;;2.55;90.71;101388.50;5091946;28;20083;-54
2021/12/12 07:04:57;;;;;;;;;;;;;;;2.52;90.66;101378.06;5084295;28;20089;-51
2021/12/12 07:07:26;;;;;;;13.73;6.45;;;;;;;2.61;90.35;101397.22;5090146;28;19920;-53
2021/12/12 07:10:18;;;;;;;14.73;6.50;;;;;;;2.61;90.15;101394.59;5091732;28;20044;-53
2021/12/12 07:12:55;;;;;;;11.52;6.53;;;;;;;2.60;90.25;101399.84;5079859;28;20075;-54
2021/12/12 07:16:01;;;;;;;13.40;6.88;;;;;;;2.60;90.23;101394.59;5074609;28;20117;-52
2021/12/12 07:18:42;;;;;;;14.82;6.63;;;;;;;2.63;89.88;101402.47;5054390;28;20051;-53
2021/12/12 07:21:18;;;;;;;12.35;6.15;;;;;;;2.65;90.41;101401.59;5077439;28;20123;-52
2021/12/12 07:23:51;;;;;;;15.88;6.57;;;;;;;2.70;89.81;101406.81;5075499;28;20056;-52
2021/12/12 07:26:24;;;;;;;11.70;6.60;;;;;;;2.77;89.96;101404.22;5075511;28;20472;-53
2021/12/12 07:29:03;;;;;;;12.70;6.57;;;;;;;2.71;89.83;101414.66;5075381;28;20055;-53
2021/12/12 07:31:36;;;;;;;15.98;6.97;;;;;;;2.68;90.81;101419.88;5074630;28;20048;-51
2021/12/12 07:34:13;;;;;;;14.57;6.75;;;;;;;2.70;90.94;101422.50;5076005;28;20045;-53
2021/12/12 07:37:01;;;;;;;15.90;7.18;;;;;;;2.70;90.88;101422.50;5075186;28;20059;-52
2021/12/12 07:39:32;;;;;;;15.05;6.88;;;;;;;2.71;90.63;101416.41;5073161;28;20048;-53
2021/12/12 07:42:06;;;;;;;13.45;7.50;;;;;;;2.73;90.63;101423.38;5076669;28;20052;-54
2021/12/12 07:44:36;;;;;;;15.80;7.30;;;;;;;2.75;90.64;101415.53;5074660;28;20047;-52
2021/12/12 07:47:05;;;;;;;13.90;7.10;;;;;;;2.83;90.13;101419.91;5074552;28;20470;-55
2021/12/12 07:49:36;;;;;;;14.65;6.80;;;;;;;2.81;90.41;101420.78;5073732;28;20056;-57
2021/12/12 07:52:15;;;;;;;16.95;7.38;;;;;;;2.86;90.16;101418.16;5071783;28;20059;-53
2021/12/12 07:54:49;;;;;;;15.98;7.22;;;;;;;2.90;90.33;101425.16;5071486;28;20051;-54
2021/12/12 07:57:26;;;;;;;13.70;7.47;;;;;;;2.92;89.47;101419.06;5072029;28;20489;-53
2021/12/12 08:00:04;;;;;;;11.38;6.90;;;;;;;2.92;90.17;101416.44;5075584;28;20062;-53
2021/12/12 08:02:33;;;;;;;15.93;7.90;;;;;;;2.96;89.72;101409.47;5077743;28;20048;-52
2021/12/12 08:05:02;;;;;;;14.52;6.22;;;;;;;3.00;88.87;101413.81;5071591;28;20504;-53
2021/12/12 08:07:29;;;;;;;15.88;6.85;;;;;;;3.05;89.57;101399.84;5077081;28;20052;-54
2021/12/12 08:10:10;;;;;;;16.00;7.60;;;;;;;3.07;88.96;101403.34;5075945;28;20155;-54
2021/12/12 08:12:41;;;;;;;16.75;7.80;;;;;;;3.04;89.16;101399.84;5079495;28;20058;-52
2021/12/12 08:15:15;;;;;;;15.60;7.20;;;;;;;3.09;88.91;101408.59;5071947;28;20053;-54
2021/12/12 08:17:42;;;;;;;12.55;7.25;;;;;;;3.12;89.45;101412.09;5069306;28;20043;-54
2021/12/12 08:20:35;;;;;;;16.83;7.75;;;;;;;3.15;88.60;101413.81;5073827;28;20047;-54
2021/12/12 08:23:07;;;;;;;14.52;7.13;;;;;;;3.18;88.49;101405.97;5071793;28;20048;-52
2021/12/12 08:25:35;;;;;;;13.23;6.82;;;;;;;3.26;88.40;101405.97;5075386;28;20044;-52
2021/12/12 08:28:24;;;;;;;15.38;6.63;;;;;;;3.32;87.34;101406.81;5074413;28;20048;-51
2021/12/12 08:31:01;;;;;;;12.10;6.55;;;;;;;3.40;88.41;101409.44;5074995;28;20438;-55
2021/12/12 08:33:46;;;;;;;14.35;6.97;;;;;;;3.37;87.12;101412.91;5076362;28;20162;-56
2021/12/12 08:36:18;;;;;;;12.77;7.15;;;;;;;3.39;87.44;101412.91;5074084;28;20505;-52
2021/12/12 08:38:45;;;;;;;12.00;7.13;;;;;;;3.36;87.40;101419.03;5077793;28;20131;-55
2021/12/12 08:41:29;;;;;;;16.13;7.35;;;;;;;3.39;87.90;101421.66;5070831;28;20056;-53
2021/12/12 08:44:07;;;;;;;15.50;7.57;;;;;;;3.45;87.33;101426.03;5089491;28;20052;-53
2021/12/12 08:46:51;;;;;;;15.93;7.82;;;;;;;3.49;86.74;101425.13;5070811;28;20044;-53
2021/12/12 08:49:51;;;;;;;;;;;;;;;;;;;;;
2021/12/12 08:52:27;;;;;;;16.48;7.32;;;;;;;3.50;87.01;101425.13;5057809;28;20048;-52
2021/12/12 08:55:07;;;;;;;15.57;7.70;;;;;;;3.50;87.20;101414.63;5072754;28;20663;-52
2021/12/12 08:58:14;;;;;;;18.50;7.88;;;;;;;3.58;86.07;101421.63;5073914;28;20056;-54
2021/12/12 09:00:59;;;;;;;12.48;6.90;;;;;;;3.61;86.77;101426.88;5069012;28;20127;-52
2021/12/12 09:03:56;;;;;;;15.45;7.82;;;;;;;3.55;86.63;101430.34;5071548;28;20510;-52
2021/12/12 09:06:41;;;;;;;16.20;8.07;;;;;;;3.58;86.63;101430.34;5072580;28;20829;-55
2021/12/12 09:09:27;;;;;;;13.35;7.88;;;;;;;3.63;86.58;101431.19;5071680;28;20587;-53
2021/12/12 09:12:10;;;;;;;14.70;7.85;;;;;;;3.65;86.16;101429.44;5072013;28;20062;-54
2021/12/12 09:14:54;;;;;;;15.90;8.07;;;;;;;3.71;86.34;101434.69;5071402;28;20043;-54
2021/12/12 09:17:57;;;;;;;14.32;9.02;;;;;;;3.75;85.51;101440.81;5068091;28;20060;-56
2021/12/12 09:20:46;;;;;;;16.63;8.07;;;;;;;3.74;85.00;101441.66;5069727;28;20114;-53
2021/12/12 09:23:49;;;;;;;14.35;7.68;;;;;;;3.62;85.38;101434.69;5072241;28;20044;-52
2021/12/12 09:26:24;;;;;;;12.73;7.55;;;;;;;3.62;86.00;101439.94;5071343;28;20092;-53
2021/12/12 09:29:10;;;;;;;15.02;8.00;;;;;;;3.65;85.42;101437.31;5073241;28;20556;-54
2021/12/12 09:32:30;;;;;;;15.60;7.55;;;;;;;3.68;85.77;101444.28;5061745;28;20066;-55
2021/12/12 09:35:11;;;;;;;15.18;8.50;;;;;;;3.73;85.54;101439.94;5060993;28;20045;-52
2021/12/12 09:37:54;;;;;;;11.85;7.72;;;;;;;3.75;85.74;101441.66;5071681;28;20577;-54
2021/12/12 09:40:24;;;;;;;17.50;8.30;;;;;;;3.72;85.69;101428.56;5072870;28;20049;-52
2021/12/12 09:43:08;;;;;;;14.10;8.43;;;;;;;3.83;85.54;101436.41;5069969;28;20056;-53
2021/12/12 09:45:35;;;;;;;15.55;7.85;;;;;;;3.82;85.33;101422.41;5071708;28;20047;-53
2021/12/12 09:51:54;;;;;;;16.55;8.57;;;;;;;3.75;86.48;101420.72;5071671;28;20079;-53
2021/12/12 09:54:44;;;;;;;15.00;8.07;;;;;;;3.81;85.65;101417.19;5069335;28;20055;-54
2021/12/12 09:57:37;;;;;;;16.08;8.55;;;;;;;3.85;86.21;101411.06;5070485;28;20063;-57
2021/12/12 10:00:13;;;;;;;18.25;9.10;;;;;;;3.95;85.09;101411.88;5074233;28;20055;-53
2021/12/12 10:02:54;;;;;;;13.00;8.23;;;;;;;3.92;85.68;101418.03;5072476;28;20048;-51
2021/12/12 10:06:13;;;;;;;19.10;8.57;;;;;;;3.85;86.51;101422.41;5073184;28;20051;-52
2021/12/12 10:08:45;;;;;;;17.30;8.38;;;;;;;3.80;86.60;101418.94;5070293;28;20595;-52
2021/12/12 10:11:32;;;;;;;15.20;8.70;;;;;;;3.68;88.23;101418.97;5070273;28;20141;-52
2021/12/12 10:14:42;;;;;;;15.07;8.13;;;;;;;3.72;89.06;101420.72;5072678;28;20077;-54
2021/12/12 10:17:13;;;;;;;21.52;9.30;;;;;;;3.72;90.04;101419.84;5069362;28;20055;-52
2021/12/12 10:19:46;;;;;;;;;;;;;;;3.75;89.71;101420.72;5072419;28;20549;-52
2021/12/12 10:22:58;;;;;;;16.52;8.32;;;;;;;3.76;89.70;101408.50;5072027;28;20396;-52
2021/12/12 10:25:45;;;;;;;14.90;7.72;;;;;;;3.75;91.05;101410.22;5072884;28;20486;-53
2021/12/12 10:28:39;;;;;;;17.05;8.65;;;;;;;3.77;90.74;101387.53;5066669;28;20049;-52
2021/12/12 10:32:13;;;;;;;17.35;8.18;;;;;;;3.77;90.91;101392.78;5073562;28;20048;-54
2021/12/12 10:34:47;;;;;;;19.83;10.07;;;;;;;3.77;92.33;101387.53;5070318;28;20584;-54
2021/12/12 10:37:48;;;;;;;17.75;9.77;;;;;;;3.78;92.51;101393.59;5068480;28;20052;-52
2021/12/12 10:40:20;;;;;;;21.08;10.23;;;;;;;3.74;92.56;101400.63;5068120;28;20067;-59
2021/12/12 10:42:56;;;;;;;18.80;10.00;;;;;;;3.81;93.31;101404.09;5076042;28;20382;-53
2021/12/12 10:45:54;;;;;;;18.67;9.70;;;;;;;3.88;93.26;101397.97;5073768;28;20052;-52
2021/12/12 10:49:06;;;;;;;21.33;10.35;;;;;;;3.84;93.47;101376.13;5075187;28;20052;-52
2021/12/12 10:52:18;;;;;;;19.23;10.07;;;;;;;3.83;94.54;101376.13;5066466;28;20079;-54
2021/12/12 10:55:24;;;;;;;23.60;10.93;;;;;;;3.80;95.95;101363.91;5035689;28;20044;-53
2021/12/12 10:58:28;;;;;;;21.33;10.68;;;;;;;3.77;96.45;101365.69;5069550;28;20051;-52
2021/12/12 11:01:07;;;;;;;18.38;10.43;;;;;;;3.79;96.12;101369.16;5072795;28;20053;-52
2021/12/12 11:03:56;;;;;;;19.77;10.35;;;;;;;3.82;94.75;101359.53;5072197;28;20059;-54
2021/12/12 11:06:42;;;;;;;17.08;10.40;;;;;;;3.74;95.52;101371.81;5072891;28;20070;-53
2021/12/12 11:09:34;;;;;;;20.60;10.38;;;;;;;3.76;96.07;101364.81;5070075;28;20094;-53
2021/12/12 11:12:24;;;;;;;21.77;10.57;;;;;;;3.72;96.30;101363.09;5055576;28;20575;-53
2021/12/12 11:15:27;;;;;;;22.58;11.07;;;;;;;3.80;97.24;101360.41;5070829;28;20254;-53
2021/12/12 11:18:07;;;;;;;22.52;11.15;;;;;;;3.92;97.48;101364.75;5056678;28;20048;-51
2021/12/12 11:20:51;;;;;;;17.98;10.82;;;;;;;3.93;95.75;101358.66;5071843;28;20059;-52
2021/12/12 11:23:50;;;;;;;21.80;11.73;;;;;;;3.86;96.38;101363.91;5070632;28;20051;-52
2021/12/12 11:26:45;;;;;;;20.38;11.73;;;;;;;3.83;96.44;101361.28;5073868;28;20071;-53
2021/12/12 11:29:33;;;;;;;22.35;13.02;;;;;;;4.03;100.00;101374.31;5063057;28;20057;-53
2021/12/12 11:32:19;;;;;;;24.40;12.93;;;;;;;4.23;100.00;101379.47;5055349;28;20049;-52
2021/12/12 11:35:02;;;;;;;22.33;12.25;;;;;;;4.32;99.39;101375.91;5062932;28;20673;-51
2021/12/12 11:37:49;;;;;;;26.10;11.27;;;;;;;4.19;94.83;101375.97;5052817;28;20052;-51
2021/12/12 11:41:00;;;;;;;17.75;10.32;;;;;;;4.00;95.58;101360.34;5055833;28;20044;-53
2021/12/12 11:43:41;;;;;;;17.45;11.00;;;;;;;3.90;95.88;101351.66;5058582;28;20059;-54
2021/12/12 11:46:34;;;;;;;20.25;11.43;;;;;;;3.86;96.89;101340.31;5055400;28;20044;-52
2021/12/12 11:49:11;;;;;;;23.20;10.90;;;;;;;3.90;96.39;101345.56;5056595;28;20056;-54
2021/12/12 11:51:45;;;;;;;20.42;11.05;;;;;;;3.94;97.19;101344.63;5057976;28;20045;-53
2021/12/12 11:54:45;;;;;;;23.60;11.15;;;;;;;4.07;96.56;101355.06;5058178;28;20059;-51
2021/12/12 11:58:21;;;;;;;18.15;10.45;;;;;;;4.23;95.02;101355.88;5053948;28;20093;-51
2021/12/12 12:01:15;;;;;;;19.08;9.70;;;;;;;4.32;94.60;101355.78;4947659;28;20073;-54
2021/12/12 12:04:05;;;;;;;20.88;9.60;;;;;;;4.34;93.10;101353.16;4999099;28;20052;-52
2021/12/12 12:07:02;;;;;;;19.40;9.52;;;;;;;4.34;93.63;101354.03;5057776;28;20072;-53
2021/12/12 12:09:54;;;;;;;16.17;8.85;;;;;;;4.37;93.47;101356.66;5056441;28;20201;-53
2021/12/12 12:13:14;;;;;;;18.27;9.07;;;;;;;4.37;93.05;101364.50;5062747;28;20577;-51
2021/12/12 12:16:17;;;;;;;21.25;9.40;;;;;;;4.36;92.87;101360.16;5058056;28;20052;-57
2021/12/12 12:19:25;;;;;;;15.55;8.55;;;;;;;4.40;93.06;101346.16;5052636;28;20052;-53
2021/12/12 12:22:08;;;;;;;12.60;7.25;;;;;;;4.48;92.88;101348.69;5059707;28;20670;-53
2021/12/12 12:24:57;;;;;;;15.90;7.97;;;;;;;4.50;91.78;101350.44;5056345;28;20052;-52
2021/12/12 12:28:03;;;;;;;18.95;7.90;;;;;;;4.53;91.36;101339.94;5054494;28;20135;-52
2021/12/12 12:31:12;;;;;;;17.27;7.43;;;;;;;4.53;91.57;101333.81;5055779;28;20079;-55
2021/12/12 12:34:17;;;;;;;13.05;6.80;;;;;;;4.65;90.10;101332.84;5057644;28;20399;-54
2021/12/12 12:37:21;;;;;;;16.17;6.70;;;;;;;4.66;90.25;101334.59;5058945;28;20049;-54
2021/12/12 12:40:25;;;;;;;16.65;6.28;;;;;;;4.71;90.72;101330.19;5057146;28;20495;-54
2021/12/12 12:43:46;;;;;;;13.20;5.95;;;;;;;4.75;90.27;101330.13;5037319;28;20536;-54
2021/12/12 12:46:52;;;;;;;16.05;5.97;;;;;;;4.78;90.33;101326.59;5048405;28;20056;-53
2021/12/12 12:49:58;;;;;;;11.65;6.10;;;;;;;4.80;90.35;101325.72;5058460;28;20075;-53
2021/12/12 12:53:01;;;;;;;13.02;6.55;;;;;;;4.84;90.00;101335.31;5053875;28;20056;-54
2021/12/12 12:56:06;;;;;;;11.57;6.38;;;;;;;4.82;90.54;101330.94;5054975;28;20053;-51